sensor_id;sensor_type;location;lat;lon;timestamp;P1;durP1;ratioP1;P2;durP2;ratioP2
23743;SDS011;12052;53.478;10.182;2023-07-08T00:00:13;5.70;;;2.97;;
23743;SDS011;12052;53.478;10.182;2023-07-08T00:02:41;5.75;;;2.90;;
23743;SDS011;12052;53.478;10.182;2023-07-08T00:05:08;4.47;;;3.08;;
23743;SDS011;12052;53.478;10.182;2023-07-08T00:07:35;4.15;;;2.90;;
23743;SDS011;12052;53.478;10.182;2023-07-08T00:10:04;5.80;;;3.03;;
23743;SDS011;12052;53.478;10.182;2023-07-08T00:12:36;6.88;;;3.40;;
23743;SDS011;12052;53.478;10.182;2023-07-08T00:15:02;9.13;;;3.35;;
23743;SDS011;12052;53.478;10.182;2023-07-08T00:17:27;5.88;;;2.97;;
23743;SDS011;12052;53.478;10.182;2023-07-08T00:19:53;9.80;;;3.05;;
23743;SDS011;12052;53.478;10.182;2023-07-08T00:22:19;4.40;;;3.17;;
23743;SDS011;12052;53.478;10.182;2023-07-08T00:24:45;5.82;;;3.67;;
23743;SDS011;12052;53.478;10.182;2023-07-08T00:27:11;5.72;;;3.17;;
23743;SDS011;12052;53.478;10.182;2023-07-08T00:29:38;8.50;;;3.25;;
23743;SDS011;12052;53.478;10.182;2023-07-08T00:32:08;5.50;;;2.97;;
23743;SDS011;12052;53.478;10.182;2023-07-08T00:37:02;4.40;;;2.80;;
23743;SDS011;12052;53.478;10.182;2023-07-08T00:39:30;7.93;;;2.88;;
23743;SDS011;12052;53.478;10.182;2023-07-08T00:41:59;4.35;;;3.03;;
23743;SDS011;12052;53.478;10.182;2023-07-08T00:44:26;3.97;;;3.10;;
23743;SDS011;12052;53.478;10.182;2023-07-08T00:47:07;4.57;;;2.92;;
23743;SDS011;12052;53.478;10.182;2023-07-08T00:52:15;4.38;;;2.80;;
23743;SDS011;12052;53.478;10.182;2023-07-08T00:54:43;7.72;;;3.17;;
23743;SDS011;12052;53.478;10.182;2023-07-08T00:57:09;5.85;;;2.97;;
23743;SDS011;12052;53.478;10.182;2023-07-08T00:59:42;5.85;;;3.05;;
23743;SDS011;12052;53.478;10.182;2023-07-08T01:02:22;6.43;;;3.55;;
23743;SDS011;12052;53.478;10.182;2023-07-08T01:04:52;4.68;;;3.08;;
23743;SDS011;12052;53.478;10.182;2023-07-08T01:07:25;5.55;;;3.70;;
23743;SDS011;12052;53.478;10.182;2023-07-08T01:10:26;6.22;;;3.60;;
23743;SDS011;12052;53.478;10.182;2023-07-08T01:12:51;5.07;;;3.30;;
23743;SDS011;12052;53.478;10.182;2023-07-08T01:15:21;6.18;;;3.30;;
23743;SDS011;12052;53.478;10.182;2023-07-08T01:17:51;5.50;;;3.78;;
23743;SDS011;12052;53.478;10.182;2023-07-08T01:20:18;6.13;;;3.60;;
23743;SDS011;12052;53.478;10.182;2023-07-08T01:22:44;4.68;;;2.88;;
23743;SDS011;12052;53.478;10.182;2023-07-08T01:25:10;5.47;;;3.17;;
23743;SDS011;12052;53.478;10.182;2023-07-08T01:27:39;5.55;;;3.22;;
23743;SDS011;12052;53.478;10.182;2023-07-08T01:30:08;4.03;;;3.08;;
23743;SDS011;12052;53.478;10.182;2023-07-08T01:32:39;5.70;;;3.63;;
23743;SDS011;12052;53.478;10.182;2023-07-08T01:35:09;5.80;;;3.53;;
23743;SDS011;12052;53.478;10.182;2023-07-08T01:37:39;5.72;;;3.90;;
23743;SDS011;12052;53.478;10.182;2023-07-08T01:42:55;3.92;;;3.08;;
23743;SDS011;12052;53.478;10.182;2023-07-08T01:45:22;5.53;;;3.55;;
23743;SDS011;12052;53.478;10.182;2023-07-08T01:48:07;5.50;;;3.70;;
23743;SDS011;12052;53.478;10.182;2023-07-08T01:50:37;5.88;;;2.97;;
23743;SDS011;12052;53.478;10.182;2023-07-08T01:53:06;6.10;;;3.83;;
23743;SDS011;12052;53.478;10.182;2023-07-08T01:55:37;5.50;;;3.78;;
23743;SDS011;12052;53.478;10.182;2023-07-08T01:58:02;8.60;;;3.72;;
23743;SDS011;12052;53.478;10.182;2023-07-08T02:00:28;4.72;;;3.45;;
23743;SDS011;12052;53.478;10.182;2023-07-08T02:02:53;8.98;;;3.20;;
23743;SDS011;12052;53.478;10.182;2023-07-08T02:05:19;3.90;;;3.17;;
23743;SDS011;12052;53.478;10.182;2023-07-08T02:07:44;3.72;;;3.05;;
23743;SDS011;12052;53.478;10.182;2023-07-08T02:10:10;4.72;;;3.78;;
23743;SDS011;12052;53.478;10.182;2023-07-08T02:12:36;5.70;;;3.60;;
23743;SDS011;12052;53.478;10.182;2023-07-08T02:15:02;8.32;;;3.55;;
23743;SDS011;12052;53.478;10.182;2023-07-08T02:17:30;4.65;;;3.60;;
23743;SDS011;12052;53.478;10.182;2023-07-08T02:19:56;7.00;;;3.35;;
23743;SDS011;12052;53.478;10.182;2023-07-08T02:22:21;4.93;;;3.47;;
23743;SDS011;12052;53.478;10.182;2023-07-08T02:24:47;6.20;;;4.05;;
23743;SDS011;12052;53.478;10.182;2023-07-08T02:27:13;6.47;;;3.63;;
23743;SDS011;12052;53.478;10.182;2023-07-08T02:29:39;6.10;;;3.65;;
23743;SDS011;12052;53.478;10.182;2023-07-08T02:32:05;7.47;;;4.10;;
23743;SDS011;12052;53.478;10.182;2023-07-08T02:34:31;6.25;;;3.60;;
23743;SDS011;12052;53.478;10.182;2023-07-08T02:36:57;7.50;;;3.85;;
23743;SDS011;12052;53.478;10.182;2023-07-08T02:39:22;9.30;;;4.25;;
23743;SDS011;12052;53.478;10.182;2023-07-08T02:41:48;5.72;;;3.33;;
23743;SDS011;12052;53.478;10.182;2023-07-08T02:44:14;5.10;;;3.53;;
23743;SDS011;12052;53.478;10.182;2023-07-08T02:46:40;5.68;;;3.78;;
23743;SDS011;12052;53.478;10.182;2023-07-08T02:49:05;7.82;;;3.45;;
23743;SDS011;12052;53.478;10.182;2023-07-08T02:51:32;5.25;;;3.53;;
23743;SDS011;12052;53.478;10.182;2023-07-08T02:53:57;7.07;;;3.72;;
23743;SDS011;12052;53.478;10.182;2023-07-08T02:56:23;8.18;;;3.97;;
23743;SDS011;12052;53.478;10.182;2023-07-08T02:58:49;6.03;;;3.13;;
23743;SDS011;12052;53.478;10.182;2023-07-08T03:01:14;5.93;;;3.40;;
23743;SDS011;12052;53.478;10.182;2023-07-08T03:03:46;6.00;;;3.75;;
23743;SDS011;12052;53.478;10.182;2023-07-08T03:06:12;6.60;;;3.78;;
23743;SDS011;12052;53.478;10.182;2023-07-08T03:08:38;4.93;;;3.33;;
23743;SDS011;12052;53.478;10.182;2023-07-08T03:11:04;5.18;;;3.55;;
23743;SDS011;12052;53.478;10.182;2023-07-08T03:13:32;5.40;;;3.67;;
23743;SDS011;12052;53.478;10.182;2023-07-08T03:15:58;5.68;;;3.75;;
23743;SDS011;12052;53.478;10.182;2023-07-08T03:18:25;5.05;;;3.67;;
23743;SDS011;12052;53.478;10.182;2023-07-08T03:20:51;3.65;;;3.30;;
23743;SDS011;12052;53.478;10.182;2023-07-08T03:23:21;8.98;;;3.80;;
23743;SDS011;12052;53.478;10.182;2023-07-08T03:25:48;4.65;;;3.72;;
23743;SDS011;12052;53.478;10.182;2023-07-08T03:28:14;7.88;;;3.88;;
23743;SDS011;12052;53.478;10.182;2023-07-08T03:30:44;5.45;;;3.50;;
23743;SDS011;12052;53.478;10.182;2023-07-08T03:33:10;6.75;;;3.63;;
23743;SDS011;12052;53.478;10.182;2023-07-08T03:35:36;6.25;;;3.55;;
23743;SDS011;12052;53.478;10.182;2023-07-08T03:38:03;5.80;;;3.70;;
23743;SDS011;12052;53.478;10.182;2023-07-08T03:40:29;6.93;;;3.55;;
23743;SDS011;12052;53.478;10.182;2023-07-08T03:42:56;7.18;;;3.55;;
23743;SDS011;12052;53.478;10.182;2023-07-08T03:45:21;7.68;;;4.15;;
23743;SDS011;12052;53.478;10.182;2023-07-08T03:47:47;4.88;;;3.65;;
23743;SDS011;12052;53.478;10.182;2023-07-08T03:50:20;5.70;;;3.50;;
23743;SDS011;12052;53.478;10.182;2023-07-08T03:52:50;5.00;;;3.60;;
23743;SDS011;12052;53.478;10.182;2023-07-08T03:55:17;5.00;;;3.20;;
23743;SDS011;12052;53.478;10.182;2023-07-08T03:57:43;5.97;;;3.25;;
23743;SDS011;12052;53.478;10.182;2023-07-08T04:00:09;7.75;;;3.67;;
23743;SDS011;12052;53.478;10.182;2023-07-08T04:02:37;4.57;;;3.38;;
23743;SDS011;12052;53.478;10.182;2023-07-08T04:05:13;6.65;;;3.85;;
23743;SDS011;12052;53.478;10.182;2023-07-08T04:07:40;5.05;;;3.70;;
23743;SDS011;12052;53.478;10.182;2023-07-08T04:10:06;4.35;;;3.13;;
23743;SDS011;12052;53.478;10.182;2023-07-08T04:12:33;4.63;;;3.22;;
23743;SDS011;12052;53.478;10.182;2023-07-08T04:14:59;4.47;;;3.38;;
23743;SDS011;12052;53.478;10.182;2023-07-08T04:17:24;3.80;;;3.10;;
23743;SDS011;12052;53.478;10.182;2023-07-08T04:19:50;3.35;;;3.05;;
23743;SDS011;12052;53.478;10.182;2023-07-08T04:22:16;6.40;;;3.05;;
23743;SDS011;12052;53.478;10.182;2023-07-08T04:24:42;6.57;;;3.08;;
23743;SDS011;12052;53.478;10.182;2023-07-08T04:27:12;4.57;;;3.28;;
23743;SDS011;12052;53.478;10.182;2023-07-08T04:29:40;6.43;;;2.80;;
23743;SDS011;12052;53.478;10.182;2023-07-08T04:32:06;5.22;;;3.13;;
23743;SDS011;12052;53.478;10.182;2023-07-08T04:34:32;4.43;;;2.70;;
23743;SDS011;12052;53.478;10.182;2023-07-08T04:36:58;4.53;;;3.00;;
23743;SDS011;12052;53.478;10.182;2023-07-08T04:39:23;6.50;;;3.25;;
23743;SDS011;12052;53.478;10.182;2023-07-08T04:41:49;3.90;;;2.72;;
23743;SDS011;12052;53.478;10.182;2023-07-08T04:44:15;4.75;;;2.80;;
23743;SDS011;12052;53.478;10.182;2023-07-08T04:46:46;3.67;;;2.45;;
23743;SDS011;12052;53.478;10.182;2023-07-08T04:49:19;3.65;;;2.45;;
23743;SDS011;12052;53.478;10.182;2023-07-08T04:51:46;3.85;;;2.22;;
23743;SDS011;12052;53.478;10.182;2023-07-08T04:54:12;7.28;;;2.67;;
23743;SDS011;12052;53.478;10.182;2023-07-08T04:56:39;4.90;;;3.08;;
23743;SDS011;12052;53.478;10.182;2023-07-08T04:59:09;4.53;;;2.72;;
23743;SDS011;12052;53.478;10.182;2023-07-08T05:01:36;3.67;;;2.53;;
23743;SDS011;12052;53.478;10.182;2023-07-08T05:04:03;6.00;;;2.95;;
23743;SDS011;12052;53.478;10.182;2023-07-08T05:06:32;3.92;;;2.55;;
23743;SDS011;12052;53.478;10.182;2023-07-08T05:08:59;4.25;;;2.80;;
23743;SDS011;12052;53.478;10.182;2023-07-08T05:11:25;3.55;;;2.70;;
23743;SDS011;12052;53.478;10.182;2023-07-08T05:13:51;4.82;;;2.40;;
23743;SDS011;12052;53.478;10.182;2023-07-08T05:16:16;4.53;;;2.42;;
23743;SDS011;12052;53.478;10.182;2023-07-08T05:18:42;2.72;;;2.38;;
23743;SDS011;12052;53.478;10.182;2023-07-08T05:21:08;7.05;;;2.60;;
23743;SDS011;12052;53.478;10.182;2023-07-08T05:23:34;6.35;;;2.72;;
23743;SDS011;12052;53.478;10.182;2023-07-08T05:26:01;4.13;;;2.35;;
23743;SDS011;12052;53.478;10.182;2023-07-08T05:28:27;5.30;;;2.50;;
23743;SDS011;12052;53.478;10.182;2023-07-08T05:30:53;3.33;;;2.40;;
23743;SDS011;12052;53.478;10.182;2023-07-08T05:33:20;3.58;;;2.33;;
23743;SDS011;12052;53.478;10.182;2023-07-08T05:35:49;5.25;;;2.63;;
23743;SDS011;12052;53.478;10.182;2023-07-08T05:38:15;7.90;;;2.88;;
23743;SDS011;12052;53.478;10.182;2023-07-08T05:40:41;6.10;;;2.40;;
23743;SDS011;12052;53.478;10.182;2023-07-08T05:43:07;4.93;;;2.60;;
23743;SDS011;12052;53.478;10.182;2023-07-08T05:45:32;5.35;;;2.45;;
23743;SDS011;12052;53.478;10.182;2023-07-08T05:48:00;4.00;;;1.95;;
23743;SDS011;12052;53.478;10.182;2023-07-08T05:50:25;6.15;;;2.42;;
23743;SDS011;12052;53.478;10.182;2023-07-08T05:52:51;4.68;;;2.40;;
23743;SDS011;12052;53.478;10.182;2023-07-08T05:55:16;4.57;;;2.40;;
23743;SDS011;12052;53.478;10.182;2023-07-08T05:57:42;2.80;;;2.03;;
23743;SDS011;12052;53.478;10.182;2023-07-08T06:00:07;3.50;;;2.58;;
23743;SDS011;12052;53.478;10.182;2023-07-08T06:02:33;4.78;;;2.10;;
23743;SDS011;12052;53.478;10.182;2023-07-08T06:04:59;3.55;;;2.08;;
23743;SDS011;12052;53.478;10.182;2023-07-08T06:07:24;7.35;;;2.13;;
23743;SDS011;12052;53.478;10.182;2023-07-08T06:09:50;3.92;;;2.00;;
23743;SDS011;12052;53.478;10.182;2023-07-08T06:12:16;9.55;;;2.20;;
23743;SDS011;12052;53.478;10.182;2023-07-08T06:14:41;3.97;;;2.15;;
23743;SDS011;12052;53.478;10.182;2023-07-08T06:17:08;4.07;;;2.28;;
23743;SDS011;12052;53.478;10.182;2023-07-08T06:19:34;3.20;;;2.30;;
23743;SDS011;12052;53.478;10.182;2023-07-08T06:21:59;2.83;;;2.05;;
23743;SDS011;12052;53.478;10.182;2023-07-08T06:24:25;3.63;;;1.73;;
23743;SDS011;12052;53.478;10.182;2023-07-08T06:26:50;3.67;;;2.28;;
23743;SDS011;12052;53.478;10.182;2023-07-08T06:29:16;2.80;;;2.17;;
23743;SDS011;12052;53.478;10.182;2023-07-08T06:31:42;4.95;;;2.58;;
23743;SDS011;12052;53.478;10.182;2023-07-08T06:34:07;5.28;;;2.55;;
23743;SDS011;12052;53.478;10.182;2023-07-08T06:36:33;4.80;;;2.30;;
23743;SDS011;12052;53.478;10.182;2023-07-08T06:38:58;3.10;;;1.98;;
23743;SDS011;12052;53.478;10.182;2023-07-08T06:41:24;2.75;;;2.00;;
23743;SDS011;12052;53.478;10.182;2023-07-08T06:43:50;3.35;;;1.98;;
23743;SDS011;12052;53.478;10.182;2023-07-08T06:46:15;1.83;;;1.67;;
23743;SDS011;12052;53.478;10.182;2023-07-08T06:48:42;2.20;;;1.75;;
23743;SDS011;12052;53.478;10.182;2023-07-08T06:51:07;7.47;;;2.22;;
23743;SDS011;12052;53.478;10.182;2023-07-08T06:53:33;4.40;;;2.15;;
23743;SDS011;12052;53.478;10.182;2023-07-08T06:55:58;4.15;;;1.98;;
23743;SDS011;12052;53.478;10.182;2023-07-08T06:58:24;2.17;;;1.80;;
23743;SDS011;12052;53.478;10.182;2023-07-08T07:00:50;4.20;;;2.13;;
23743;SDS011;12052;53.478;10.182;2023-07-08T07:03:15;5.82;;;2.00;;
23743;SDS011;12052;53.478;10.182;2023-07-08T07:05:42;3.85;;;2.20;;
23743;SDS011;12052;53.478;10.182;2023-07-08T07:08:08;4.82;;;3.55;;
23743;SDS011;12052;53.478;10.182;2023-07-08T07:10:34;6.90;;;3.03;;
23743;SDS011;12052;53.478;10.182;2023-07-08T07:13:00;4.65;;;2.38;;
23743;SDS011;12052;53.478;10.182;2023-07-08T07:15:25;5.05;;;2.20;;
23743;SDS011;12052;53.478;10.182;2023-07-08T07:17:51;2.85;;;1.98;;
23743;SDS011;12052;53.478;10.182;2023-07-08T07:20:17;2.42;;;1.98;;
23743;SDS011;12052;53.478;10.182;2023-07-08T07:22:42;6.45;;;2.40;;
23743;SDS011;12052;53.478;10.182;2023-07-08T07:25:08;2.33;;;1.75;;
23743;SDS011;12052;53.478;10.182;2023-07-08T07:27:34;3.65;;;1.80;;
23743;SDS011;12052;53.478;10.182;2023-07-08T07:29:59;5.13;;;1.80;;
23743;SDS011;12052;53.478;10.182;2023-07-08T07:32:25;3.15;;;1.90;;
23743;SDS011;12052;53.478;10.182;2023-07-08T07:34:52;2.20;;;1.98;;
23743;SDS011;12052;53.478;10.182;2023-07-08T07:37:19;2.95;;;2.22;;
23743;SDS011;12052;53.478;10.182;2023-07-08T07:39:46;3.65;;;2.30;;
23743;SDS011;12052;53.478;10.182;2023-07-08T07:42:12;2.63;;;2.03;;
23743;SDS011;12052;53.478;10.182;2023-07-08T07:44:39;3.30;;;2.08;;
23743;SDS011;12052;53.478;10.182;2023-07-08T07:47:05;4.95;;;1.85;;
23743;SDS011;12052;53.478;10.182;2023-07-08T07:49:34;3.00;;;2.10;;
23743;SDS011;12052;53.478;10.182;2023-07-08T07:52:00;2.85;;;2.00;;
23743;SDS011;12052;53.478;10.182;2023-07-08T07:54:26;4.70;;;2.20;;
23743;SDS011;12052;53.478;10.182;2023-07-08T07:56:53;2.40;;;1.70;;
23743;SDS011;12052;53.478;10.182;2023-07-08T07:59:19;5.10;;;2.30;;
23743;SDS011;12052;53.478;10.182;2023-07-08T08:01:45;2.83;;;2.13;;
23743;SDS011;12052;53.478;10.182;2023-07-08T08:04:11;2.22;;;2.03;;
23743;SDS011;12052;53.478;10.182;2023-07-08T08:06:36;3.08;;;2.17;;
23743;SDS011;12052;53.478;10.182;2023-07-08T08:09:03;3.03;;;1.60;;
23743;SDS011;12052;53.478;10.182;2023-07-08T08:11:30;2.30;;;1.85;;
23743;SDS011;12052;53.478;10.182;2023-07-08T08:13:55;3.75;;;2.15;;
23743;SDS011;12052;53.478;10.182;2023-07-08T08:16:21;4.40;;;2.28;;
23743;SDS011;12052;53.478;10.182;2023-07-08T08:18:47;2.83;;;2.08;;
23743;SDS011;12052;53.478;10.182;2023-07-08T08:21:13;5.03;;;2.10;;
23743;SDS011;12052;53.478;10.182;2023-07-08T08:23:39;3.53;;;2.38;;
23743;SDS011;12052;53.478;10.182;2023-07-08T08:26:04;3.53;;;2.25;;
23743;SDS011;12052;53.478;10.182;2023-07-08T08:28:30;4.63;;;1.98;;
23743;SDS011;12052;53.478;10.182;2023-07-08T08:30:56;1.92;;;1.70;;
23743;SDS011;12052;53.478;10.182;2023-07-08T08:33:22;2.20;;;1.75;;
23743;SDS011;12052;53.478;10.182;2023-07-08T08:35:47;2.78;;;1.90;;
23743;SDS011;12052;53.478;10.182;2023-07-08T08:38:13;2.67;;;1.80;;
23743;SDS011;12052;53.478;10.182;2023-07-08T08:40:40;2.80;;;1.80;;
23743;SDS011;12052;53.478;10.182;2023-07-08T08:43:09;2.35;;;1.63;;
23743;SDS011;12052;53.478;10.182;2023-07-08T08:45:53;3.35;;;2.10;;
23743;SDS011;12052;53.478;10.182;2023-07-08T08:48:30;2.38;;;1.85;;
23743;SDS011;12052;53.478;10.182;2023-07-08T08:51:02;6.85;;;2.40;;
23743;SDS011;12052;53.478;10.182;2023-07-08T08:53:33;4.15;;;2.03;;
23743;SDS011;12052;53.478;10.182;2023-07-08T08:58:44;2.90;;;2.00;;
23743;SDS011;12052;53.478;10.182;2023-07-08T09:01:47;2.40;;;1.67;;
23743;SDS011;12052;53.478;10.182;2023-07-08T09:04:35;2.67;;;1.98;;
23743;SDS011;12052;53.478;10.182;2023-07-08T09:07:11;2.80;;;1.77;;
23743;SDS011;12052;53.478;10.182;2023-07-08T09:09:45;4.72;;;1.80;;
23743;SDS011;12052;53.478;10.182;2023-07-08T09:12:24;4.00;;;1.90;;
23743;SDS011;12052;53.478;10.182;2023-07-08T09:14:52;2.42;;;2.10;;
23743;SDS011;12052;53.478;10.182;2023-07-08T09:17:22;4.38;;;2.03;;
23743;SDS011;12052;53.478;10.182;2023-07-08T09:20:06;3.42;;;1.67;;
23743;SDS011;12052;53.478;10.182;2023-07-08T09:25:39;3.47;;;2.10;;
23743;SDS011;12052;53.478;10.182;2023-07-08T09:28:19;2.72;;;2.17;;
23743;SDS011;12052;53.478;10.182;2023-07-08T09:30:48;3.75;;;1.85;;
23743;SDS011;12052;53.478;10.182;2023-07-08T09:33:18;3.08;;;2.13;;
23743;SDS011;12052;53.478;10.182;2023-07-08T09:35:47;3.92;;;1.92;;
23743;SDS011;12052;53.478;10.182;2023-07-08T09:38:17;2.65;;;1.83;;
23743;SDS011;12052;53.478;10.182;2023-07-08T09:40:48;4.82;;;2.17;;
23743;SDS011;12052;53.478;10.182;2023-07-08T09:43:26;3.15;;;2.20;;
23743;SDS011;12052;53.478;10.182;2023-07-08T09:45:59;3.33;;;1.95;;
23743;SDS011;12052;53.478;10.182;2023-07-08T09:48:26;8.07;;;1.90;;
23743;SDS011;12052;53.478;10.182;2023-07-08T09:51:02;4.18;;;2.17;;
23743;SDS011;12052;53.478;10.182;2023-07-08T09:53:29;5.90;;;3.10;;
23743;SDS011;12052;53.478;10.182;2023-07-08T09:55:58;3.35;;;2.00;;
23743;SDS011;12052;53.478;10.182;2023-07-08T09:58:25;4.03;;;2.10;;
23743;SDS011;12052;53.478;10.182;2023-07-08T10:00:55;1.70;;;1.60;;
23743;SDS011;12052;53.478;10.182;2023-07-08T10:03:28;3.08;;;2.50;;
23743;SDS011;12052;53.478;10.182;2023-07-08T10:05:58;5.13;;;1.70;;
23743;SDS011;12052;53.478;10.182;2023-07-08T10:08:28;2.80;;;1.77;;
23743;SDS011;12052;53.478;10.182;2023-07-08T10:11:09;4.50;;;2.05;;
23743;SDS011;12052;53.478;10.182;2023-07-08T10:18:53;3.83;;;2.40;;
23743;SDS011;12052;53.478;10.182;2023-07-08T10:23:52;3.37;;;2.00;;
23743;SDS011;12052;53.478;10.182;2023-07-08T10:26:28;3.45;;;2.13;;
23743;SDS011;12052;53.478;10.182;2023-07-08T10:43:15;1.83;;;1.63;;
23743;SDS011;12052;53.478;10.182;2023-07-08T10:50:59;2.35;;;1.65;;
23743;SDS011;12052;53.478;10.182;2023-07-08T10:53:43;3.10;;;2.10;;
23743;SDS011;12052;53.478;10.182;2023-07-08T10:56:16;5.07;;;1.90;;
23743;SDS011;12052;53.478;10.182;2023-07-08T11:04:45;2.72;;;1.80;;
23743;SDS011;12052;53.478;10.182;2023-07-08T11:07:28;3.17;;;1.98;;
23743;SDS011;12052;53.478;10.182;2023-07-08T11:10:28;5.43;;;2.22;;
23743;SDS011;12052;53.478;10.182;2023-07-08T11:13:15;2.60;;;1.95;;
23743;SDS011;12052;53.478;10.182;2023-07-08T11:15:49;3.40;;;2.20;;
23743;SDS011;12052;53.478;10.182;2023-07-08T11:21:13;2.67;;;1.95;;
23743;SDS011;12052;53.478;10.182;2023-07-08T11:23:50;3.65;;;2.10;;
23743;SDS011;12052;53.478;10.182;2023-07-08T11:26:28;1.90;;;1.70;;
23743;SDS011;12052;53.478;10.182;2023-07-08T11:29:10;4.68;;;2.20;;
23743;SDS011;12052;53.478;10.182;2023-07-08T11:32:02;3.38;;;2.00;;
23743;SDS011;12052;53.478;10.182;2023-07-08T11:34:30;2.25;;;2.05;;
23743;SDS011;12052;53.478;10.182;2023-07-08T11:36:58;2.50;;;1.98;;
23743;SDS011;12052;53.478;10.182;2023-07-08T11:39:38;4.07;;;2.10;;
23743;SDS011;12052;53.478;10.182;2023-07-08T11:42:20;3.17;;;1.90;;
23743;SDS011;12052;53.478;10.182;2023-07-08T11:45:01;4.68;;;2.10;;
23743;SDS011;12052;53.478;10.182;2023-07-08T11:47:47;3.15;;;2.17;;
23743;SDS011;12052;53.478;10.182;2023-07-08T11:52:51;3.85;;;2.53;;
23743;SDS011;12052;53.478;10.182;2023-07-08T11:55:24;4.93;;;2.03;;
23743;SDS011;12052;53.478;10.182;2023-07-08T11:57:54;3.63;;;2.50;;
23743;SDS011;12052;53.478;10.182;2023-07-08T12:00:23;4.05;;;1.92;;
23743;SDS011;12052;53.478;10.182;2023-07-08T12:02:52;2.63;;;1.90;;
23743;SDS011;12052;53.478;10.182;2023-07-08T12:05:55;3.30;;;2.10;;
23743;SDS011;12052;53.478;10.182;2023-07-08T12:08:15;2.87;;;1.90;;
23743;SDS011;12052;53.478;10.182;2023-07-08T12:13:17;3.42;;;1.80;;
23743;SDS011;12052;53.478;10.182;2023-07-08T12:15:46;4.57;;;2.20;;
23743;SDS011;12052;53.478;10.182;2023-07-08T12:20:45;2.30;;;1.75;;
23743;SDS011;12052;53.478;10.182;2023-07-08T12:23:18;5.85;;;2.28;;
23743;SDS011;12052;53.478;10.182;2023-07-08T12:25:45;2.90;;;2.10;;
23743;SDS011;12052;53.478;10.182;2023-07-08T12:28:12;2.60;;;1.95;;
23743;SDS011;12052;53.478;10.182;2023-07-08T12:30:39;3.08;;;2.30;;
23743;SDS011;12052;53.478;10.182;2023-07-08T12:33:09;5.15;;;1.92;;
23743;SDS011;12052;53.478;10.182;2023-07-08T12:35:40;3.85;;;1.83;;
23743;SDS011;12052;53.478;10.182;2023-07-08T12:41:00;4.03;;;2.10;;
23743;SDS011;12052;53.478;10.182;2023-07-08T12:43:30;2.97;;;1.90;;
23743;SDS011;12052;53.478;10.182;2023-07-08T12:45:55;4.18;;;2.05;;
23743;SDS011;12052;53.478;10.182;2023-07-08T12:48:21;2.20;;;2.00;;
23743;SDS011;12052;53.478;10.182;2023-07-08T12:50:47;2.92;;;2.00;;
23743;SDS011;12052;53.478;10.182;2023-07-08T12:53:15;3.95;;;2.20;;
23743;SDS011;12052;53.478;10.182;2023-07-08T12:55:41;2.50;;;2.00;;
23743;SDS011;12052;53.478;10.182;2023-07-08T12:58:13;3.17;;;2.28;;
23743;SDS011;12052;53.478;10.182;2023-07-08T13:00:45;2.97;;;1.80;;
23743;SDS011;12052;53.478;10.182;2023-07-08T13:03:15;4.47;;;2.30;;
23743;SDS011;12052;53.478;10.182;2023-07-08T13:05:47;7.55;;;2.28;;
23743;SDS011;12052;53.478;10.182;2023-07-08T13:08:14;3.55;;;1.98;;
23743;SDS011;12052;53.478;10.182;2023-07-08T13:10:42;2.72;;;2.08;;
23743;SDS011;12052;53.478;10.182;2023-07-08T13:13:20;3.28;;;2.22;;
23743;SDS011;12052;53.478;10.182;2023-07-08T13:15:48;2.45;;;2.00;;
23743;SDS011;12052;53.478;10.182;2023-07-08T13:18:15;2.80;;;1.90;;
23743;SDS011;12052;53.478;10.182;2023-07-08T13:20:55;4.15;;;2.05;;
23743;SDS011;12052;53.478;10.182;2023-07-08T13:23:21;3.40;;;2.38;;
23743;SDS011;12052;53.478;10.182;2023-07-08T13:25:48;4.50;;;2.63;;
23743;SDS011;12052;53.478;10.182;2023-07-08T13:33:28;3.65;;;2.20;;
23743;SDS011;12052;53.478;10.182;2023-07-08T13:35:55;2.80;;;2.15;;
23743;SDS011;12052;53.478;10.182;2023-07-08T13:38:22;5.32;;;2.20;;
23743;SDS011;12052;53.478;10.182;2023-07-08T13:40:53;5.88;;;2.40;;
23743;SDS011;12052;53.478;10.182;2023-07-08T13:43:28;5.90;;;2.30;;
23743;SDS011;12052;53.478;10.182;2023-07-08T13:45:56;3.78;;;2.25;;
23743;SDS011;12052;53.478;10.182;2023-07-08T13:50:57;3.70;;;2.10;;
23743;SDS011;12052;53.478;10.182;2023-07-08T13:54:08;3.97;;;2.60;;
23743;SDS011;12052;53.478;10.182;2023-07-08T13:56:37;3.85;;;2.13;;
23743;SDS011;12052;53.478;10.182;2023-07-08T13:59:10;2.63;;;2.20;;
23743;SDS011;12052;53.478;10.182;2023-07-08T14:01:41;5.28;;;2.58;;
23743;SDS011;12052;53.478;10.182;2023-07-08T14:04:09;4.70;;;2.72;;
23743;SDS011;12052;53.478;10.182;2023-07-08T14:06:40;2.88;;;2.20;;
23743;SDS011;12052;53.478;10.182;2023-07-08T14:09:09;3.78;;;2.58;;
23743;SDS011;12052;53.478;10.182;2023-07-08T14:11:36;4.72;;;2.42;;
23743;SDS011;12052;53.478;10.182;2023-07-08T14:14:02;3.10;;;2.45;;
23743;SDS011;12052;53.478;10.182;2023-07-08T14:16:28;2.95;;;2.40;;
23743;SDS011;12052;53.478;10.182;2023-07-08T14:18:55;5.93;;;2.47;;
23743;SDS011;12052;53.478;10.182;2023-07-08T14:21:23;3.67;;;2.33;;
23743;SDS011;12052;53.478;10.182;2023-07-08T14:23:48;2.65;;;2.28;;
23743;SDS011;12052;53.478;10.182;2023-07-08T14:26:14;3.20;;;2.40;;
23743;SDS011;12052;53.478;10.182;2023-07-08T14:28:40;3.95;;;2.50;;
23743;SDS011;12052;53.478;10.182;2023-07-08T14:31:12;4.60;;;1.83;;
23743;SDS011;12052;53.478;10.182;2023-07-08T14:33:46;3.65;;;2.60;;
23743;SDS011;12052;53.478;10.182;2023-07-08T14:36:12;3.42;;;2.17;;
23743;SDS011;12052;53.478;10.182;2023-07-08T14:38:39;3.28;;;2.13;;
23743;SDS011;12052;53.478;10.182;2023-07-08T14:41:05;2.85;;;2.08;;
23743;SDS011;12052;53.478;10.182;2023-07-08T14:43:32;4.80;;;2.65;;
23743;SDS011;12052;53.478;10.182;2023-07-08T14:45:59;2.70;;;2.15;;
23743;SDS011;12052;53.478;10.182;2023-07-08T14:48:28;4.57;;;2.55;;
23743;SDS011;12052;53.478;10.182;2023-07-08T14:50:55;4.70;;;3.15;;
23743;SDS011;12052;53.478;10.182;2023-07-08T14:53:21;4.20;;;2.47;;
23743;SDS011;12052;53.478;10.182;2023-07-08T14:55:48;3.80;;;2.33;;
23743;SDS011;12052;53.478;10.182;2023-07-08T14:58:21;7.75;;;2.78;;
23743;SDS011;12052;53.478;10.182;2023-07-08T15:00:50;2.95;;;2.33;;
23743;SDS011;12052;53.478;10.182;2023-07-08T15:03:16;2.92;;;2.22;;
23743;SDS011;12052;53.478;10.182;2023-07-08T15:05:42;2.92;;;2.30;;
23743;SDS011;12052;53.478;10.182;2023-07-08T15:08:08;4.25;;;2.35;;
23743;SDS011;12052;53.478;10.182;2023-07-08T15:10:33;2.90;;;2.22;;
23743;SDS011;12052;53.478;10.182;2023-07-08T15:13:00;3.58;;;2.88;;
23743;SDS011;12052;53.478;10.182;2023-07-08T15:15:27;3.42;;;2.40;;
23743;SDS011;12052;53.478;10.182;2023-07-08T15:17:55;4.50;;;2.63;;
23743;SDS011;12052;53.478;10.182;2023-07-08T15:20:22;3.67;;;2.45;;
23743;SDS011;12052;53.478;10.182;2023-07-08T15:22:49;3.97;;;2.63;;
23743;SDS011;12052;53.478;10.182;2023-07-08T15:25:15;3.58;;;2.50;;
23743;SDS011;12052;53.478;10.182;2023-07-08T15:27:42;4.57;;;2.55;;
23743;SDS011;12052;53.478;10.182;2023-07-08T15:30:14;3.72;;;2.10;;
23743;SDS011;12052;53.478;10.182;2023-07-08T15:32:45;5.90;;;2.70;;
23743;SDS011;12052;53.478;10.182;2023-07-08T15:35:12;5.63;;;2.33;;
23743;SDS011;12052;53.478;10.182;2023-07-08T15:37:39;3.17;;;2.40;;
23743;SDS011;12052;53.478;10.182;2023-07-08T15:40:06;3.45;;;2.05;;
23743;SDS011;12052;53.478;10.182;2023-07-08T15:42:34;3.28;;;2.45;;
23743;SDS011;12052;53.478;10.182;2023-07-08T15:45:01;2.65;;;2.20;;
23743;SDS011;12052;53.478;10.182;2023-07-08T15:47:33;3.58;;;2.72;;
23743;SDS011;12052;53.478;10.182;2023-07-08T15:49:59;3.70;;;2.72;;